sensor_id;sensor_type;location;lat;lon;timestamp;pressure;altitude;pressure_sealevel;temperature;humidity
48810;BME280;40070;47.322;18.784;2024-02-16T00:00:20;1010.15;;;9.59;68.99
48810;BME280;40070;47.322;18.784;2024-02-16T00:02:21;1010.16;;;9.53;69.30
48810;BME280;40070;47.322;18.784;2024-02-16T00:04:22;1010.15;;;9.74;68.40
48810;BME280;40070;47.322;18.784;2024-02-16T00:06:23;1010.16;;;9.83;67.97
48810;BME280;40070;47.322;18.784;2024-02-16T00:08:24;1010.18;;;10.04;67.08
48810;BME280;40070;47.322;18.784;2024-02-16T00:10:25;1010.19;;;9.89;67.48
48810;BME280;40070;47.322;18.784;2024-02-16T00:12:26;1010.19;;;10.10;67.06
48810;BME280;40070;47.322;18.784;2024-02-16T00:14:27;1010.15;;;10.12;66.96
48810;BME280;40070;47.322;18.784;2024-02-16T00:16:28;1010.17;;;10.21;66.71
48810;BME280;40070;47.322;18.784;2024-02-16T00:18:29;1010.15;;;10.17;66.54
48810;BME280;40070;47.322;18.784;2024-02-16T00:20:30;1010.13;;;9.97;66.82
48810;BME280;40070;47.322;18.784;2024-02-16T00:22:31;1010.11;;;10.01;67.20
48810;BME280;40070;47.322;18.784;2024-02-16T00:24:32;1010.08;;;9.81;67.71
48810;BME280;40070;47.322;18.784;2024-02-16T00:26:33;1010.10;;;9.88;67.41
48810;BME280;40070;47.322;18.784;2024-02-16T00:28:34;1010.14;;;9.80;67.66
48810;BME280;40070;47.322;18.784;2024-02-16T00:30:35;1010.12;;;9.81;67.61
48810;BME280;40070;47.322;18.784;2024-02-16T00:32:36;1010.14;;;9.87;67.37
48810;BME280;40070;47.322;18.784;2024-02-16T00:34:36;1010.11;;;9.91;67.31
48810;BME280;40070;47.322;18.784;2024-02-16T00:36:37;1010.11;;;9.74;67.50
48810;BME280;40070;47.322;18.784;2024-02-16T00:38:38;1010.08;;;9.88;67.32
48810;BME280;40070;47.322;18.784;2024-02-16T00:40:39;1010.08;;;9.92;66.73
48810;BME280;40070;47.322;18.784;2024-02-16T00:42:40;1010.09;;;9.92;66.79
48810;BME280;40070;47.322;18.784;2024-02-16T00:44:42;1010.11;;;9.96;66.42
48810;BME280;40070;47.322;18.784;2024-02-16T00:46:44;1010.12;;;9.86;66.54
48810;BME280;40070;47.322;18.784;2024-02-16T00:48:45;1010.12;;;9.88;66.56
48810;BME280;40070;47.322;18.784;2024-02-16T00:50:46;1010.14;;;9.87;66.42
48810;BME280;40070;47.322;18.784;2024-02-16T00:52:47;1010.13;;;9.77;66.61
48810;BME280;40070;47.322;18.784;2024-02-16T00:54:48;1010.15;;;9.82;66.48
48810;BME280;40070;47.322;18.784;2024-02-16T00:56:49;1010.16;;;9.71;66.46
48810;BME280;40070;47.322;18.784;2024-02-16T00:58:50;1010.21;;;9.57;66.66
48810;BME280;40070;47.322;18.784;2024-02-16T01:00:51;1010.22;;;9.65;66.33
48810;BME280;40070;47.322;18.784;2024-02-16T01:02:52;1010.14;;;9.77;65.51
48810;BME280;40070;47.322;18.784;2024-02-16T01:04:53;1010.18;;;9.55;65.82
48810;BME280;40070;47.322;18.784;2024-02-16T01:06:54;1010.17;;;9.66;65.69
48810;BME280;40070;47.322;18.784;2024-02-16T01:08:55;1010.16;;;9.56;65.76
48810;BME280;40070;47.322;18.784;2024-02-16T01:10:56;1010.10;;;9.56;65.79
48810;BME280;40070;47.322;18.784;2024-02-16T01:12:57;1010.07;;;9.59;65.78
48810;BME280;40070;47.322;18.784;2024-02-16T01:14:58;1010.07;;;9.59;65.71
48810;BME280;40070;47.322;18.784;2024-02-16T01:16:58;1010.11;;;9.50;65.82
48810;BME280;40070;47.322;18.784;2024-02-16T01:18:59;1010.14;;;9.38;65.71
48810;BME280;40070;47.322;18.784;2024-02-16T01:21:00;1010.11;;;9.26;65.75
48810;BME280;40070;47.322;18.784;2024-02-16T01:23:01;1010.11;;;9.22;65.86
48810;BME280;40070;47.322;18.784;2024-02-16T01:25:03;1010.09;;;9.25;65.72
48810;BME280;40070;47.322;18.784;2024-02-16T01:27:04;1010.14;;;9.15;66.04
48810;BME280;40070;47.322;18.784;2024-02-16T01:29:05;1010.09;;;9.25;65.77
48810;BME280;40070;47.322;18.784;2024-02-16T01:31:07;1010.15;;;8.79;67.24
48810;BME280;40070;47.322;18.784;2024-02-16T01:33:07;1010.17;;;8.59;68.31
48810;BME280;40070;47.322;18.784;2024-02-16T01:35:08;1010.17;;;8.58;68.49
48810;BME280;40070;47.322;18.784;2024-02-16T01:37:09;1010.19;;;8.51;68.72
48810;BME280;40070;47.322;18.784;2024-02-16T01:39:10;1010.19;;;8.56;68.20
48810;BME280;40070;47.322;18.784;2024-02-16T01:41:11;1010.17;;;8.71;67.71
48810;BME280;40070;47.322;18.784;2024-02-16T01:43:12;1010.18;;;8.63;67.46
48810;BME280;40070;47.322;18.784;2024-02-16T01:45:13;1010.14;;;8.58;67.96
48810;BME280;40070;47.322;18.784;2024-02-16T01:47:14;1010.12;;;8.51;68.43
48810;BME280;40070;47.322;18.784;2024-02-16T01:49:16;1010.16;;;8.29;69.24
48810;BME280;40070;47.322;18.784;2024-02-16T01:51:17;1010.11;;;8.35;68.75
48810;BME280;40070;47.322;18.784;2024-02-16T01:53:19;1010.12;;;8.43;68.38
48810;BME280;40070;47.322;18.784;2024-02-16T01:55:20;1010.13;;;8.39;68.46
48810;BME280;40070;47.322;18.784;2024-02-16T01:57:21;1010.14;;;8.49;67.81
48810;BME280;40070;47.322;18.784;2024-02-16T01:59:23;1010.15;;;8.45;67.63
48810;BME280;40070;47.322;18.784;2024-02-16T02:01:24;1010.08;;;8.46;67.14
48810;BME280;40070;47.322;18.784;2024-02-16T02:03:25;1010.10;;;8.39;67.32
48810;BME280;40070;47.322;18.784;2024-02-16T02:05:26;1010.05;;;8.44;66.96
48810;BME280;40070;47.322;18.784;2024-02-16T02:07:27;1010.02;;;8.44;66.95
48810;BME280;40070;47.322;18.784;2024-02-16T02:09:28;1010.05;;;8.41;67.01
48810;BME280;40070;47.322;18.784;2024-02-16T02:11:29;1010.00;;;8.24;67.14
48810;BME280;40070;47.322;18.784;2024-02-16T02:13:30;1009.98;;;8.34;67.02
48810;BME280;40070;47.322;18.784;2024-02-16T02:15:31;1009.96;;;8.22;67.13
48810;BME280;40070;47.322;18.784;2024-02-16T02:17:32;1009.94;;;8.37;66.85
48810;BME280;40070;47.322;18.784;2024-02-16T02:19:33;1009.93;;;8.40;66.62
48810;BME280;40070;47.322;18.784;2024-02-16T02:21:34;1009.95;;;8.41;66.29
48810;BME280;40070;47.322;18.784;2024-02-16T02:23:36;1009.94;;;8.30;66.41
48810;BME280;40070;47.322;18.784;2024-02-16T02:25:37;1009.98;;;8.25;66.55
48810;BME280;40070;47.322;18.784;2024-02-16T02:27:38;1009.95;;;8.26;66.23
48810;BME280;40070;47.322;18.784;2024-02-16T02:29:39;1009.92;;;8.20;66.74
48810;BME280;40070;47.322;18.784;2024-02-16T02:31:40;1009.94;;;8.14;66.32
48810;BME280;40070;47.322;18.784;2024-02-16T02:33:41;1009.95;;;8.13;66.34
48810;BME280;40070;47.322;18.784;2024-02-16T02:35:42;1009.97;;;8.02;66.59
48810;BME280;40070;47.322;18.784;2024-02-16T02:37:43;1009.94;;;7.91;66.94
48810;BME280;40070;47.322;18.784;2024-02-16T02:39:44;1009.92;;;7.85;67.18
48810;BME280;40070;47.322;18.784;2024-02-16T02:41:45;1009.88;;;7.86;66.85
48810;BME280;40070;47.322;18.784;2024-02-16T02:43:46;1009.89;;;7.48;67.79
48810;BME280;40070;47.322;18.784;2024-02-16T02:45:47;1009.85;;;7.72;67.03
48810;BME280;40070;47.322;18.784;2024-02-16T02:47:48;1009.86;;;7.66;67.03
48810;BME280;40070;47.322;18.784;2024-02-16T02:49:49;1009.87;;;7.52;67.43
48810;BME280;40070;47.322;18.784;2024-02-16T02:51:50;1009.90;;;7.56;67.46
48810;BME280;40070;47.322;18.784;2024-02-16T02:53:51;1009.92;;;7.47;67.94
48810;BME280;40070;47.322;18.784;2024-02-16T02:55:52;1009.94;;;7.35;68.26
48810;BME280;40070;47.322;18.784;2024-02-16T02:57:53;1009.91;;;7.49;67.60
48810;BME280;40070;47.322;18.784;2024-02-16T03:00:01;1009.93;;;7.35;68.15
48810;BME280;40070;47.322;18.784;2024-02-16T03:02:02;1009.95;;;7.18;68.00
48810;BME280;40070;47.322;18.784;2024-02-16T03:04:03;1009.97;;;7.09;68.32
48810;BME280;40070;47.322;18.784;2024-02-16T03:06:04;1009.99;;;7.26;67.65
48810;BME280;40070;47.322;18.784;2024-02-16T03:08:06;1009.99;;;7.14;68.23
48810;BME280;40070;47.322;18.784;2024-02-16T03:10:07;1010.01;;;7.14;68.33
48810;BME280;40070;47.322;18.784;2024-02-16T03:12:08;1010.02;;;7.30;67.66
48810;BME280;40070;47.322;18.784;2024-02-16T03:14:09;1010.01;;;7.27;67.63
48810;BME280;40070;47.322;18.784;2024-02-16T03:16:10;1009.99;;;7.18;67.81
48810;BME280;40070;47.322;18.784;2024-02-16T03:18:11;1009.98;;;7.18;67.83
48810;BME280;40070;47.322;18.784;2024-02-16T03:20:12;1009.98;;;7.22;67.70
48810;BME280;40070;47.322;18.784;2024-02-16T03:22:13;1009.96;;;7.09;68.27
48810;BME280;40070;47.322;18.784;2024-02-16T03:24:14;1010.01;;;7.09;68.13
48810;BME280;40070;47.322;18.784;2024-02-16T03:26:15;1010.01;;;7.30;67.61
48810;BME280;40070;47.322;18.784;2024-02-16T03:28:16;1010.00;;;7.14;67.92
48810;BME280;40070;47.322;18.784;2024-02-16T03:30:18;1009.98;;;7.22;67.76
48810;BME280;40070;47.322;18.784;2024-02-16T03:32:19;1010.00;;;7.03;68.37
48810;BME280;40070;47.322;18.784;2024-02-16T03:34:20;1010.04;;;7.32;67.38
48810;BME280;40070;47.322;18.784;2024-02-16T03:36:21;1010.04;;;7.29;67.18
48810;BME280;40070;47.322;18.784;2024-02-16T03:38:22;1009.96;;;7.12;67.66
48810;BME280;40070;47.322;18.784;2024-02-16T03:40:23;1010.03;;;6.83;68.80
48810;BME280;40070;47.322;18.784;2024-02-16T03:42:25;1010.00;;;7.06;68.29
48810;BME280;40070;47.322;18.784;2024-02-16T03:44:26;1010.04;;;6.82;68.36
48810;BME280;40070;47.322;18.784;2024-02-16T03:46:27;1010.01;;;7.02;67.93
48810;BME280;40070;47.322;18.784;2024-02-16T03:48:28;1010.08;;;6.97;68.29
48810;BME280;40070;47.322;18.784;2024-02-16T03:50:29;1010.05;;;6.94;68.87
48810;BME280;40070;47.322;18.784;2024-02-16T03:52:30;1010.06;;;6.76;70.10
48810;BME280;40070;47.322;18.784;2024-02-16T03:54:31;1010.07;;;6.62;70.95
48810;BME280;40070;47.322;18.784;2024-02-16T03:56:32;1010.07;;;6.64;71.02
48810;BME280;40070;47.322;18.784;2024-02-16T03:58:33;1010.08;;;6.78;70.36
48810;BME280;40070;47.322;18.784;2024-02-16T04:00:34;1010.06;;;6.70;70.34
48810;BME280;40070;47.322;18.784;2024-02-16T04:02:35;1010.11;;;6.70;70.64
48810;BME280;40070;47.322;18.784;2024-02-16T04:04:36;1010.09;;;6.70;71.00
48810;BME280;40070;47.322;18.784;2024-02-16T04:06:37;1010.10;;;6.60;71.30
48810;BME280;40070;47.322;18.784;2024-02-16T04:08:38;1010.06;;;6.52;71.59
48810;BME280;40070;47.322;18.784;2024-02-16T04:10:39;1010.11;;;6.47;71.89
48810;BME280;40070;47.322;18.784;2024-02-16T04:12:40;1010.11;;;6.42;72.14
48810;BME280;40070;47.322;18.784;2024-02-16T04:14:41;1010.10;;;6.39;72.10
48810;BME280;40070;47.322;18.784;2024-02-16T04:16:45;1010.12;;;6.40;72.13
48810;BME280;40070;47.322;18.784;2024-02-16T04:18:46;1010.10;;;6.50;71.92
48810;BME280;40070;47.322;18.784;2024-02-16T04:20:47;1010.10;;;6.46;72.00
48810;BME280;40070;47.322;18.784;2024-02-16T04:22:48;1010.15;;;6.40;72.27
48810;BME280;40070;47.322;18.784;2024-02-16T04:24:49;1010.19;;;6.35;72.61
48810;BME280;40070;47.322;18.784;2024-02-16T04:26:50;1010.24;;;6.31;72.50
48810;BME280;40070;47.322;18.784;2024-02-16T04:28:51;1010.17;;;6.39;72.24
48810;BME280;40070;47.322;18.784;2024-02-16T04:30:52;1010.19;;;6.41;71.96
48810;BME280;40070;47.322;18.784;2024-02-16T04:32:53;1010.20;;;6.47;71.63
48810;BME280;40070;47.322;18.784;2024-02-16T04:34:54;1010.21;;;6.50;71.41
48810;BME280;40070;47.322;18.784;2024-02-16T04:36:55;1010.20;;;6.47;71.25
48810;BME280;40070;47.322;18.784;2024-02-16T04:38:56;1010.23;;;6.59;70.84
48810;BME280;40070;47.322;18.784;2024-02-16T04:40:57;1010.21;;;6.73;69.94
48810;BME280;40070;47.322;18.784;2024-02-16T04:42:58;1010.27;;;6.56;70.14
48810;BME280;40070;47.322;18.784;2024-02-16T04:44:59;1010.21;;;6.51;70.33
48810;BME280;40070;47.322;18.784;2024-02-16T04:47:00;1010.20;;;6.65;69.96
48810;BME280;40070;47.322;18.784;2024-02-16T04:49:01;1010.20;;;6.52;70.39
48810;BME280;40070;47.322;18.784;2024-02-16T04:51:02;1010.22;;;6.48;70.69
48810;BME280;40070;47.322;18.784;2024-02-16T04:53:03;1010.26;;;6.37;71.08
48810;BME280;40070;47.322;18.784;2024-02-16T04:55:04;1010.22;;;6.31;70.88
48810;BME280;40070;47.322;18.784;2024-02-16T04:57:05;1010.21;;;6.46;70.36
48810;BME280;40070;47.322;18.784;2024-02-16T04:59:06;1010.15;;;6.50;70.22
48810;BME280;40070;47.322;18.784;2024-02-16T05:01:07;1010.20;;;6.58;69.50
48810;BME280;40070;47.322;18.784;2024-02-16T05:03:08;1010.23;;;6.50;69.34
48810;BME280;40070;47.322;18.784;2024-02-16T05:05:09;1010.21;;;6.64;68.76
48810;BME280;40070;47.322;18.784;2024-02-16T05:07:10;1010.19;;;6.56;69.29
48810;BME280;40070;47.322;18.784;2024-02-16T05:09:11;1010.17;;;6.51;69.49
48810;BME280;40070;47.322;18.784;2024-02-16T05:11:12;1010.23;;;6.39;69.99
48810;BME280;40070;47.322;18.784;2024-02-16T05:13:13;1010.24;;;6.20;71.00
48810;BME280;40070;47.322;18.784;2024-02-16T05:15:15;1010.27;;;6.05;70.32
48810;BME280;40070;47.322;18.784;2024-02-16T05:17:16;1010.22;;;6.18;70.34
48810;BME280;40070;47.322;18.784;2024-02-16T05:19:17;1010.24;;;6.29;69.86
48810;BME280;40070;47.322;18.784;2024-02-16T05:21:18;1010.25;;;6.17;69.93
48810;BME280;40070;47.322;18.784;2024-02-16T05:23:19;1010.31;;;6.25;69.86
48810;BME280;40070;47.322;18.784;2024-02-16T05:25:20;1010.30;;;6.21;69.66
48810;BME280;40070;47.322;18.784;2024-02-16T05:27:21;1010.35;;;6.27;69.59
48810;BME280;40070;47.322;18.784;2024-02-16T05:29:22;1010.30;;;6.21;69.82
48810;BME280;40070;47.322;18.784;2024-02-16T05:31:23;1010.33;;;6.32;69.38
48810;BME280;40070;47.322;18.784;2024-02-16T05:33:24;1010.34;;;6.30;69.65
48810;BME280;40070;47.322;18.784;2024-02-16T05:35:25;1010.36;;;6.19;70.02
48810;BME280;40070;47.322;18.784;2024-02-16T05:37:26;1010.38;;;6.17;70.29
48810;BME280;40070;47.322;18.784;2024-02-16T05:39:27;1010.38;;;6.05;70.40
48810;BME280;40070;47.322;18.784;2024-02-16T05:41:28;1010.37;;;5.79;71.33
48810;BME280;40070;47.322;18.784;2024-02-16T05:43:29;1010.36;;;5.95;70.73
48810;BME280;40070;47.322;18.784;2024-02-16T05:45:30;1010.42;;;6.10;70.35
48810;BME280;40070;47.322;18.784;2024-02-16T05:47:31;1010.40;;;6.11;70.20
48810;BME280;40070;47.322;18.784;2024-02-16T05:49:31;1010.41;;;6.28;70.07
48810;BME280;40070;47.322;18.784;2024-02-16T05:51:35;1010.40;;;5.96;71.65
48810;BME280;40070;47.322;18.784;2024-02-16T05:53:36;1010.44;;;5.77;72.71
48810;BME280;40070;47.322;18.784;2024-02-16T05:55:37;1010.41;;;5.65;73.27
48810;BME280;40070;47.322;18.784;2024-02-16T05:57:38;1010.41;;;5.84;72.73
48810;BME280;40070;47.322;18.784;2024-02-16T05:59:39;1010.43;;;5.80;72.95
48810;BME280;40070;47.322;18.784;2024-02-16T06:01:40;1010.43;;;6.05;72.38
48810;BME280;40070;47.322;18.784;2024-02-16T06:03:41;1010.43;;;5.88;72.79
48810;BME280;40070;47.322;18.784;2024-02-16T06:05:43;1010.47;;;5.88;72.81
48810;BME280;40070;47.322;18.784;2024-02-16T06:07:44;1010.48;;;5.93;72.41
48810;BME280;40070;47.322;18.784;2024-02-16T06:09:45;1010.49;;;6.04;72.27
48810;BME280;40070;47.322;18.784;2024-02-16T06:11:46;1010.51;;;6.11;72.22
48810;BME280;40070;47.322;18.784;2024-02-16T06:13:47;1010.52;;;5.99;72.63
48810;BME280;40070;47.322;18.784;2024-02-16T06:15:47;1010.54;;;5.98;72.68
48810;BME280;40070;47.322;18.784;2024-02-16T06:17:49;1010.51;;;5.99;72.73
48810;BME280;40070;47.322;18.784;2024-02-16T06:19:50;1010.56;;;6.08;72.56
48810;BME280;40070;47.322;18.784;2024-02-16T06:21:51;1010.53;;;6.01;72.58
48810;BME280;40070;47.322;18.784;2024-02-16T06:23:52;1010.57;;;6.13;72.31
48810;BME280;40070;47.322;18.784;2024-02-16T06:25:53;1010.64;;;6.30;72.09
48810;BME280;40070;47.322;18.784;2024-02-16T06:27:54;1010.63;;;6.45;71.52
48810;BME280;40070;47.322;18.784;2024-02-16T06:29:55;1010.63;;;6.46;71.63
48810;BME280;40070;47.322;18.784;2024-02-16T06:31:56;1010.65;;;6.55;71.45
48810;BME280;40070;47.322;18.784;2024-02-16T06:33:57;1010.68;;;6.78;70.60
48810;BME280;40070;47.322;18.784;2024-02-16T06:35:58;1010.75;;;6.84;70.15
48810;BME280;40070;47.322;18.784;2024-02-16T06:37:59;1010.76;;;6.71;70.41
48810;BME280;40070;47.322;18.784;2024-02-16T06:40:00;1010.84;;;6.67;70.86
48810;BME280;40070;47.322;18.784;2024-02-16T06:42:01;1010.79;;;6.96;70.25
48810;BME280;40070;47.322;18.784;2024-02-16T06:44:02;1010.82;;;7.04;69.59
48810;BME280;40070;47.322;18.784;2024-02-16T06:46:03;1010.86;;;6.92;70.14
48810;BME280;40070;47.322;18.784;2024-02-16T06:48:04;1010.89;;;6.88;70.16
48810;BME280;40070;47.322;18.784;2024-02-16T06:50:05;1010.93;;;6.91;70.17
48810;BME280;40070;47.322;18.784;2024-02-16T06:52:06;1010.93;;;7.03;69.96
48810;BME280;40070;47.322;18.784;2024-02-16T06:54:07;1010.95;;;7.00;70.00
48810;BME280;40070;47.322;18.784;2024-02-16T06:56:08;1010.98;;;7.17;69.75
48810;BME280;40070;47.322;18.784;2024-02-16T06:58:09;1010.97;;;7.12;69.77
48810;BME280;40070;47.322;18.784;2024-02-16T07:00:10;1011.03;;;7.21;69.62
48810;BME280;40070;47.322;18.784;2024-02-16T07:02:11;1011.03;;;7.19;69.70
48810;BME280;40070;47.322;18.784;2024-02-16T07:04:12;1011.09;;;7.37;69.10
48810;BME280;40070;47.322;18.784;2024-02-16T07:06:13;1011.01;;;7.40;69.17
48810;BME280;40070;47.322;18.784;2024-02-16T07:08:14;1011.07;;;7.32;69.34
48810;BME280;40070;47.322;18.784;2024-02-16T07:10:15;1011.09;;;7.27;69.81
48810;BME280;40070;47.322;18.784;2024-02-16T07:12:16;1011.12;;;7.35;69.57
48810;BME280;40070;47.322;18.784;2024-02-16T07:14:17;1011.12;;;7.39;69.86
48810;BME280;40070;47.322;18.784;2024-02-16T07:16:18;1011.11;;;7.48;69.83
48810;BME280;40070;47.322;18.784;2024-02-16T07:18:19;1011.11;;;7.65;69.22
48810;BME280;40070;47.322;18.784;2024-02-16T07:20:20;1011.14;;;7.71;69.13
48810;BME280;40070;47.322;18.784;2024-02-16T07:22:21;1011.19;;;7.63;69.62
48810;BME280;40070;47.322;18.784;2024-02-16T07:24:22;1011.15;;;7.52;70.41
48810;BME280;40070;47.322;18.784;2024-02-16T07:26:23;1011.12;;;7.81;69.76
48810;BME280;40070;47.322;18.784;2024-02-16T07:28:24;1011.12;;;7.90;69.55
48810;BME280;40070;47.322;18.784;2024-02-16T07:30:26;1011.10;;;8.06;69.77
48810;BME280;40070;47.322;18.784;2024-02-16T07:32:26;1011.12;;;8.19;68.96
48810;BME280;40070;47.322;18.784;2024-02-16T07:34:27;1011.10;;;8.07;68.77
48810;BME280;40070;47.322;18.784;2024-02-16T07:36:29;1011.09;;;8.23;68.27
48810;BME280;40070;47.322;18.784;2024-02-16T07:38:30;1011.06;;;8.26;68.28
48810;BME280;40070;47.322;18.784;2024-02-16T07:40:31;1011.06;;;8.26;67.94
48810;BME280;40070;47.322;18.784;2024-02-16T07:42:32;1011.10;;;8.33;68.00
48810;BME280;40070;47.322;18.784;2024-02-16T07:44:32;1011.11;;;8.37;67.43
48810;BME280;40070;47.322;18.784;2024-02-16T07:46:39;1011.13;;;8.44;67.58
48810;BME280;40070;47.322;18.784;2024-02-16T07:48:40;1011.12;;;8.43;67.03
48810;BME280;40070;47.322;18.784;2024-02-16T07:50:41;1011.13;;;8.70;66.62
48810;BME280;40070;47.322;18.784;2024-02-16T07:52:42;1011.09;;;8.96;65.71
48810;BME280;40070;47.322;18.784;2024-02-16T07:54:43;1011.11;;;8.96;65.50
48810;BME280;40070;47.322;18.784;2024-02-16T07:56:44;1011.11;;;8.97;65.23
48810;BME280;40070;47.322;18.784;2024-02-16T07:58:45;1011.08;;;8.97;65.52
48810;BME280;40070;47.322;18.784;2024-02-16T08:00:46;1011.11;;;8.92;65.25
48810;BME280;40070;47.322;18.784;2024-02-16T08:02:47;1011.12;;;9.22;64.47
48810;BME280;40070;47.322;18.784;2024-02-16T08:04:48;1011.10;;;9.22;64.53
48810;BME280;40070;47.322;18.784;2024-02-16T08:06:49;1011.11;;;9.23;63.80
48810;BME280;40070;47.322;18.784;2024-02-16T08:08:50;1011.14;;;9.21;63.93
48810;BME280;40070;47.322;18.784;2024-02-16T08:10:51;1011.11;;;9.44;63.93
48810;BME280;40070;47.322;18.784;2024-02-16T08:12:52;1011.06;;;9.63;62.79
48810;BME280;40070;47.322;18.784;2024-02-16T08:14:53;1011.07;;;9.56;63.21
48810;BME280;40070;47.322;18.784;2024-02-16T08:16:54;1011.04;;;9.68;63.03
48810;BME280;40070;47.322;18.784;2024-02-16T08:18:55;1010.99;;;9.80;62.29
48810;BME280;40070;47.322;18.784;2024-02-16T08:20:56;1011.03;;;9.80;62.33
48810;BME280;40070;47.322;18.784;2024-02-16T08:22:57;1011.00;;;10.09;61.73
48810;BME280;40070;47.322;18.784;2024-02-16T08:24:58;1011.00;;;9.98;62.30
48810;BME280;40070;47.322;18.784;2024-02-16T08:26:59;1011.03;;;10.07;61.55
48810;BME280;40070;47.322;18.784;2024-02-16T08:29:00;1011.03;;;9.92;61.79
48810;BME280;40070;47.322;18.784;2024-02-16T08:31:01;1010.99;;;9.83;62.13
48810;BME280;40070;47.322;18.784;2024-02-16T08:33:02;1010.99;;;10.03;61.70
48810;BME280;40070;47.322;18.784;2024-02-16T08:35:03;1011.00;;;10.03;60.84
48810;BME280;40070;47.322;18.784;2024-02-16T08:37:05;1010.99;;;10.17;60.90
48810;BME280;40070;47.322;18.784;2024-02-16T08:39:06;1011.02;;;10.51;60.54
48810;BME280;40070;47.322;18.784;2024-02-16T08:41:07;1011.02;;;10.54;60.19
48810;BME280;40070;47.322;18.784;2024-02-16T08:43:08;1011.02;;;10.75;59.94
48810;BME280;40070;47.322;18.784;2024-02-16T08:45:09;1011.01;;;10.79;59.64
48810;BME280;40070;47.322;18.784;2024-02-16T08:47:10;1011.07;;;10.84;59.51
48810;BME280;40070;47.322;18.784;2024-02-16T08:49:11;1011.07;;;10.91;59.79
48810;BME280;40070;47.322;18.784;2024-02-16T08:51:12;1011.09;;;11.06;59.31
48810;BME280;40070;47.322;18.784;2024-02-16T08:53:15;1011.13;;;11.26;58.25
48810;BME280;40070;47.322;18.784;2024-02-16T08:55:16;1011.13;;;11.35;57.68
48810;BME280;40070;47.322;18.784;2024-02-16T08:57:17;1011.13;;;11.34;57.37
48810;BME280;40070;47.322;18.784;2024-02-16T08:59:18;1011.11;;;11.28;56.60
48810;BME280;40070;47.322;18.784;2024-02-16T09:01:29;1011.13;;;11.37;56.77
48810;BME280;40070;47.322;18.784;2024-02-16T09:03:31;1011.10;;;11.36;56.48
48810;BME280;40070;47.322;18.784;2024-02-16T09:05:32;1011.12;;;11.58;55.44
48810;BME280;40070;47.322;18.784;2024-02-16T09:07:33;1011.12;;;11.28;53.72
48810;BME280;40070;47.322;18.784;2024-02-16T09:09:34;1011.15;;;11.20;53.52
48810;BME280;40070;47.322;18.784;2024-02-16T09:11:35;1011.13;;;11.28;53.15
48810;BME280;40070;47.322;18.784;2024-02-16T09:13:39;1011.13;;;11.26;53.37
48810;BME280;40070;47.322;18.784;2024-02-16T09:15:40;1011.18;;;11.51;53.07
48810;BME280;40070;47.322;18.784;2024-02-16T09:17:41;1011.12;;;11.56;53.55
48810;BME280;40070;47.322;18.784;2024-02-16T09:19:42;1011.15;;;11.60;53.18
48810;BME280;40070;47.322;18.784;2024-02-16T09:21:43;1011.12;;;11.63;52.96
48810;BME280;40070;47.322;18.784;2024-02-16T09:23:44;1011.09;;;11.47;52.91
48810;BME280;40070;47.322;18.784;2024-02-16T09:25:45;1011.09;;;11.81;53.20
48810;BME280;40070;47.322;18.784;2024-02-16T09:27:46;1011.13;;;12.02;52.21
48810;BME280;40070;47.322;18.784;2024-02-16T09:29:47;1011.14;;;11.91;52.16
48810;BME280;40070;47.322;18.784;2024-02-16T09:31:51;1011.13;;;11.93;50.85
48810;BME280;40070;47.322;18.784;2024-02-16T09:33:55;1011.19;;;12.11;50.90
48810;BME280;40070;47.322;18.784;2024-02-16T09:35:56;1011.21;;;12.34;50.15
48810;BME280;40070;47.322;18.784;2024-02-16T09:37:57;1011.17;;;12.50;49.68
48810;BME280;40070;47.322;18.784;2024-02-16T09:39:59;1011.15;;;12.51;49.97
48810;BME280;40070;47.322;18.784;2024-02-16T09:42:00;1011.20;;;12.47;49.99
48810;BME280;40070;47.322;18.784;2024-02-16T09:44:01;1011.14;;;12.43;49.13
48810;BME280;40070;47.322;18.784;2024-02-16T09:46:02;1011.19;;;12.39;48.27
48810;BME280;40070;47.322;18.784;2024-02-16T09:48:03;1011.18;;;12.61;48.45
48810;BME280;40070;47.322;18.784;2024-02-16T09:50:08;1011.21;;;12.62;48.10
48810;BME280;40070;47.322;18.784;2024-02-16T09:52:10;1011.20;;;12.74;47.58
48810;BME280;40070;47.322;18.784;2024-02-16T09:54:12;1011.22;;;12.68;48.28
48810;BME280;40070;47.322;18.784;2024-02-16T09:56:13;1011.23;;;12.97;47.83
48810;BME280;40070;47.322;18.784;2024-02-16T09:58:14;1011.24;;;13.15;47.62
48810;BME280;40070;47.322;18.784;2024-02-16T10:00:15;1011.21;;;13.15;47.15
48810;BME280;40070;47.322;18.784;2024-02-16T10:02:16;1011.22;;;13.03;47.78
48810;BME280;40070;47.322;18.784;2024-02-16T10:04:17;1011.25;;;13.11;46.85
48810;BME280;40070;47.322;18.784;2024-02-16T10:06:18;1011.25;;;13.17;47.28
48810;BME280;40070;47.322;18.784;2024-02-16T10:08:19;1011.21;;;13.38;47.30
48810;BME280;40070;47.322;18.784;2024-02-16T10:10:23;1011.19;;;13.68;47.09
48810;BME280;40070;47.322;18.784;2024-02-16T10:12:24;1011.18;;;13.32;47.28
48810;BME280;40070;47.322;18.784;2024-02-16T10:14:25;1011.18;;;13.56;46.34
48810;BME280;40070;47.322;18.784;2024-02-16T10:16:27;1011.09;;;13.87;45.69
48810;BME280;40070;47.322;18.784;2024-02-16T10:18:28;1011.06;;;13.85;45.80
48810;BME280;40070;47.322;18.784;2024-02-16T10:20:29;1011.13;;;13.86;45.55
48810;BME280;40070;47.322;18.784;2024-02-16T10:22:30;1011.06;;;14.04;45.44
48810;BME280;40070;47.322;18.784;2024-02-16T10:24:31;1011.05;;;14.46;44.90
48810;BME280;40070;47.322;18.784;2024-02-16T10:26:32;1011.01;;;14.48;44.18
48810;BME280;40070;47.322;18.784;2024-02-16T10:28:33;1011.01;;;14.56;43.37
48810;BME280;40070;47.322;18.784;2024-02-16T10:30:36;1010.94;;;14.88;43.37
48810;BME280;40070;47.322;18.784;2024-02-16T10:32:38;1010.94;;;14.84;43.37
48810;BME280;40070;47.322;18.784;2024-02-16T10:34:39;1010.96;;;14.58;42.31
48810;BME280;40070;47.322;18.784;2024-02-16T10:36:41;1010.90;;;14.75;42.35
48810;BME280;40070;47.322;18.784;2024-02-16T10:38:42;1010.85;;;14.97;42.71
48810;BME280;40070;47.322;18.784;2024-02-16T10:40:45;1010.83;;;14.97;42.96
48810;BME280;40070;47.322;18.784;2024-02-16T10:42:49;1010.85;;;15.24;42.69
48810;BME280;40070;47.322;18.784;2024-02-16T10:44:50;1010.83;;;15.54;42.08
48810;BME280;40070;47.322;18.784;2024-02-16T10:46:52;1010.77;;;15.57;40.65